Flugplatz Bremen

Bericht für EDDW

vom 26.06. um 21:20 UTC

Wind 13 kt aus 330°

Sichtweite 10 km oder mehr

aufgebrochene Bewölkung in 1500 ft

Temperatur 16.0°C

Taupunkt 12.0°C

Luftfeuchtigkeit 77%

Luftdruck 1026 hPa

EDDW 262120Z 33013KT 9999 BKN015 16/12 Q1026

Prognose für EDDW

vom 26.06. um 00:00 UTC

Am 26.06. zwischen 00:00 und 00:00 UTC übergehend zu

Wind 7 kt aus 310°

Sichtweite 10 km oder mehr

aufgebrochene Bewölkung in 2000 ft


Am 26.06. zwischen 00:00 UTC und 00:00 UTC zeitweise

aufgebrochene Bewölkung in 1300 ft


Am 26.06. zwischen 00:00 UTC und 00:00 UTC

Wind 13 kt aus 330°

Sichtweite 10 km oder mehr

aufgebrochene Bewölkung in 2000 ft


Zwischen 00:00 und 00:00 UTC übergehend zu

Wind 12 kt aus 310°

Sichtweite 10 km oder mehr

aufgebrochene Bewölkung in 2000 ft

TAF EDDW 261700Z 2618/2718 33013KT 9999 BKN020 BECMG 2618/2621 31007KT TEMPO 2618/2706 BKN013 BECMG 2706/2708 31012KT
Impressum